createdAt,value
2023-03-20T00:01:08.373Z,85.37
2023-03-20T00:01:38.861Z,85.48
2023-03-20T00:02:35.749Z,85.41
2023-03-20T00:03:35.951Z,85.38
2023-03-20T00:04:35.882Z,85.30
2023-03-20T00:05:36.204Z,85.28
2023-03-20T00:06:35.004Z,85.36
2023-03-20T00:07:35.058Z,85.41
2023-03-20T00:08:35.271Z,85.37
2023-03-20T00:09:35.496Z,85.44
2023-03-20T00:10:36.133Z,85.44
2023-03-20T00:11:35.111Z,85.31
2023-03-20T00:12:35.247Z,85.21
2023-03-20T00:13:35.005Z,85.22
2023-03-20T00:14:35.110Z,85.21
2023-03-20T00:15:36.364Z,85.29
2023-03-20T00:16:35.597Z,85.26
2023-03-20T00:17:35.721Z,85.13
2023-03-20T00:18:35.509Z,85.21
2023-03-20T00:19:35.863Z,85.13
2023-03-20T00:20:36.307Z,85.08
2023-03-20T00:21:35.325Z,85.05
2023-03-20T00:22:35.143Z,85.13
2023-03-20T00:23:35.434Z,85.30
2023-03-20T00:24:35.243Z,85.24
2023-03-20T00:25:35.107Z,84.96
2023-03-20T00:26:35.070Z,84.94
2023-03-20T00:27:35.362Z,85.00
2023-03-20T00:29:35.394Z,84.67
2023-03-20T00:30:35.945Z,84.66
2023-03-20T00:31:36.488Z,84.78
2023-03-20T00:32:35.680Z,84.81
2023-03-20T00:33:35.407Z,84.80
2023-03-20T00:34:35.049Z,84.77
2023-03-20T00:35:36.439Z,84.77
2023-03-20T00:36:35.921Z,84.81
2023-03-20T00:37:35.564Z,84.81
2023-03-20T00:38:34.855Z,84.77
2023-03-20T00:39:35.129Z,84.80
2023-03-20T00:40:35.321Z,84.78
2023-03-20T00:41:35.409Z,84.71
2023-03-20T00:42:35.272Z,84.68
2023-03-20T00:43:35.399Z,84.65
2023-03-20T00:44:35.327Z,84.68
2023-03-20T00:45:36.083Z,84.80
2023-03-20T00:46:35.852Z,84.81
2023-03-20T00:47:36.270Z,84.71
2023-03-20T00:48:35.665Z,84.69
2023-03-20T00:49:35.067Z,84.59
2023-03-20T00:50:35.631Z,84.43
2023-03-20T00:51:35.339Z,84.26
2023-03-20T00:52:35.601Z,84.21
2023-03-20T00:53:35.522Z,84.20
2023-03-20T00:54:35.641Z,84.23
2023-03-20T00:55:36.549Z,84.17
2023-03-20T00:56:35.194Z,84.19
2023-03-20T00:57:34.733Z,84.20
2023-03-20T00:58:35.245Z,84.18
2023-03-20T00:59:35.089Z,84.16
2023-03-20T01:00:37.093Z,84.08
2023-03-20T01:01:39.640Z,84.09
2023-03-20T01:02:35.637Z,84.02
2023-03-20T01:03:49.419Z,84.01
2023-03-20T01:04:35.583Z,84.03
2023-03-20T01:05:35.904Z,84.12
2023-03-20T01:06:36.040Z,84.14
2023-03-20T01:07:35.942Z,84.10
2023-03-20T01:08:35.655Z,84.08
2023-03-20T01:09:35.252Z,84.03
2023-03-20T01:10:35.869Z,84.04
2023-03-20T01:11:35.723Z,84.12
2023-03-20T01:12:35.601Z,84.22
2023-03-20T01:13:35.156Z,84.27
2023-03-20T01:14:35.423Z,84.30
2023-03-20T01:15:36.078Z,84.31
2023-03-20T01:16:36.293Z,84.37
2023-03-20T01:17:35.272Z,84.48
2023-03-20T01:18:35.147Z,84.53
2023-03-20T01:19:35.026Z,84.56
2023-03-20T01:20:35.641Z,84.47
2023-03-20T01:21:35.451Z,84.43
2023-03-20T01:22:35.192Z,84.47
2023-03-20T01:23:35.155Z,84.49
2023-03-20T01:24:34.979Z,84.51
2023-03-20T01:25:35.388Z,84.59
2023-03-20T01:26:35.865Z,84.66
2023-03-20T01:27:35.366Z,84.65
2023-03-20T01:28:35.392Z,84.71
2023-03-20T01:29:34.858Z,84.77
2023-03-20T01:30:35.553Z,84.82
2023-03-20T01:31:36.164Z,84.69
2023-03-20T01:32:35.368Z,84.63
2023-03-20T01:33:36.327Z,84.62
2023-03-20T01:34:35.168Z,84.66
2023-03-20T01:35:35.777Z,84.71
2023-03-20T01:36:36.147Z,84.66
2023-03-20T01:37:35.514Z,84.74
2023-03-20T01:38:35.483Z,84.84
2023-03-20T01:39:36.237Z,84.90
2023-03-20T01:40:35.768Z,84.92
2023-03-20T01:41:35.873Z,84.97
2023-03-20T01:42:35.424Z,85.03
2023-03-20T01:43:35.208Z,85.04
2023-03-20T01:44:35.435Z,85.07
2023-03-20T01:45:36.335Z,85.09
2023-03-20T01:46:35.422Z,85.09
2023-03-20T01:47:35.423Z,85.24
2023-03-20T01:48:35.387Z,85.25
2023-03-20T01:49:35.720Z,85.11
2023-03-20T01:50:35.847Z,85.24
2023-03-20T01:51:36.148Z,85.30
2023-03-20T01:52:35.562Z,85.27
2023-03-20T01:53:35.484Z,85.32
2023-03-20T01:54:35.284Z,85.41
2023-03-20T01:55:35.631Z,85.44
2023-03-20T01:56:35.153Z,85.38
2023-03-20T01:57:34.848Z,85.34
2023-03-20T01:58:35.789Z,85.32
2023-03-20T02:00:06.142Z,85.35
2023-03-20T02:00:37.693Z,85.42
2023-03-20T02:01:36.428Z,85.54
2023-03-20T02:02:35.027Z,85.57
2023-03-20T02:03:34.959Z,85.60
2023-03-20T02:04:36.114Z,85.68
2023-03-20T02:05:35.413Z,85.69
2023-03-20T02:06:35.181Z,85.72
2023-03-20T02:07:35.221Z,85.72
2023-03-20T02:08:35.158Z,85.72
2023-03-20T02:09:34.908Z,85.76
2023-03-20T02:10:35.777Z,85.69
2023-03-20T02:11:35.061Z,85.65
2023-03-20T02:12:35.092Z,85.65
2023-03-20T02:13:35.017Z,85.70
2023-03-20T02:15:35.893Z,85.70
2023-03-20T02:16:35.614Z,85.79
2023-03-20T02:17:35.373Z,85.90
2023-03-20T02:18:35.246Z,85.95
2023-03-20T02:19:35.360Z,85.96
2023-03-20T02:20:35.913Z,86.08
2023-03-20T02:21:35.960Z,86.08
2023-03-20T02:22:35.402Z,86.11
2023-03-20T02:23:35.504Z,86.12
2023-03-20T02:24:35.564Z,86.10
2023-03-20T02:25:35.576Z,86.03
2023-03-20T02:26:35.574Z,85.84
2023-03-20T02:27:35.078Z,85.68
2023-03-20T02:28:35.189Z,85.56
2023-03-20T02:29:35.555Z,85.34
2023-03-20T02:30:36.429Z,85.33
2023-03-20T02:31:35.649Z,85.24
2023-03-20T02:32:36.019Z,84.94
2023-03-20T02:33:35.365Z,84.73
2023-03-20T02:34:35.470Z,84.66
2023-03-20T02:35:35.757Z,84.64
2023-03-20T02:36:36.015Z,84.36
2023-03-20T02:37:35.718Z,84.18
2023-03-20T02:38:35.681Z,84.13
2023-03-20T02:39:35.278Z,84.20
2023-03-20T02:40:35.150Z,84.34
2023-03-20T02:41:35.148Z,84.38
2023-03-20T02:42:35.157Z,84.30
2023-03-20T02:43:34.737Z,84.23
2023-03-20T02:44:35.192Z,84.16
2023-03-20T02:45:35.519Z,84.15
2023-03-20T02:46:36.216Z,84.10
2023-03-20T02:47:35.728Z,84.12
2023-03-20T02:48:35.309Z,84.06
2023-03-20T02:49:35.695Z,84.00
2023-03-20T02:50:36.610Z,83.87
2023-03-20T02:51:35.898Z,83.83
2023-03-20T02:52:35.756Z,83.81
2023-03-20T02:53:35.286Z,83.76
2023-03-20T02:54:35.104Z,83.77
2023-03-20T02:55:35.525Z,83.83
2023-03-20T02:56:36.136Z,83.84
2023-03-20T02:57:35.531Z,83.83
2023-03-20T02:58:34.893Z,83.84
2023-03-20T02:59:35.969Z,83.82
2023-03-20T03:00:36.131Z,83.83
2023-03-20T03:01:36.304Z,83.85
2023-03-20T03:02:35.345Z,83.88
2023-03-20T03:03:35.176Z,83.84
2023-03-20T03:04:35.296Z,83.84
2023-03-20T03:05:36.197Z,83.86
2023-03-20T03:06:35.810Z,83.82
2023-03-20T03:07:35.773Z,83.78
2023-03-20T03:08:35.092Z,83.82
2023-03-20T03:09:35.182Z,83.93
2023-03-20T03:10:35.332Z,83.85
2023-03-20T03:11:35.738Z,83.83
2023-03-20T03:12:36.050Z,83.79
2023-03-20T03:13:34.968Z,83.85
2023-03-20T03:14:36.266Z,83.86
2023-03-20T03:15:35.976Z,83.87
2023-03-20T03:16:35.334Z,83.91
2023-03-20T03:17:35.616Z,83.86
2023-03-20T03:18:43.894Z,83.89
2023-03-20T03:19:35.748Z,83.86
2023-03-20T03:20:35.833Z,83.81
2023-03-20T03:21:35.932Z,83.84
2023-03-20T03:22:43.528Z,83.98
2023-03-20T03:23:35.582Z,84.05
2023-03-20T03:24:53.440Z,84.11
2023-03-20T03:25:35.854Z,84.23
2023-03-20T03:26:36.022Z,84.21
2023-03-20T03:27:35.575Z,84.25
2023-03-20T03:28:35.490Z,84.23
2023-03-20T03:29:35.648Z,84.27
2023-03-20T03:30:35.791Z,84.36
2023-03-20T03:31:35.614Z,84.55
2023-03-20T03:32:36.133Z,84.80
2023-03-20T03:33:35.151Z,84.90
2023-03-20T03:34:35.080Z,84.83
2023-03-20T03:35:35.235Z,84.70
2023-03-20T03:36:35.454Z,84.71
2023-03-20T03:37:35.099Z,84.76
2023-03-20T03:38:35.048Z,84.79
2023-03-20T03:39:34.963Z,84.80
2023-03-20T03:41:35.957Z,84.65
2023-03-20T03:42:35.849Z,84.60
2023-03-20T03:43:35.455Z,84.55
2023-03-20T03:44:34.903Z,84.56
2023-03-20T03:45:37.156Z,84.58
2023-03-20T03:46:35.752Z,84.55
2023-03-20T03:47:35.695Z,84.53
2023-03-20T03:48:35.687Z,84.47
2023-03-20T03:49:35.649Z,84.56
2023-03-20T03:50:35.486Z,84.72
2023-03-20T03:51:36.030Z,84.81
2023-03-20T03:52:34.912Z,84.78
2023-03-20T03:53:35.623Z,84.72
2023-03-20T03:54:35.447Z,84.68
2023-03-20T03:55:36.338Z,84.55
2023-03-20T03:56:36.150Z,84.46
2023-03-20T03:57:35.536Z,84.44
2023-03-20T03:58:35.239Z,84.45
2023-03-20T03:59:35.379Z,84.54
2023-03-20T04:00:37.337Z,84.57
2023-03-20T04:01:36.281Z,84.56
2023-03-20T04:02:36.110Z,84.52
2023-03-20T04:03:35.695Z,84.56
2023-03-20T04:04:36.157Z,84.57
2023-03-20T04:05:35.843Z,84.49
2023-03-20T04:06:35.708Z,84.47
2023-03-20T04:07:36.073Z,84.52
2023-03-20T04:08:36.105Z,84.59
2023-03-20T04:09:35.549Z,84.58
2023-03-20T04:10:36.289Z,84.55
2023-03-20T04:11:36.600Z,84.66
2023-03-20T04:12:35.394Z,84.67
2023-03-20T04:13:35.575Z,84.51
2023-03-20T04:14:35.630Z,84.47
2023-03-20T04:15:36.630Z,84.46
2023-03-20T04:16:36.233Z,84.35
2023-03-20T04:17:36.772Z,84.29
2023-03-20T04:18:35.796Z,84.27
2023-03-20T04:19:35.288Z,84.24
2023-03-20T04:20:36.115Z,84.24
2023-03-20T04:21:36.257Z,84.23
2023-03-20T04:22:35.711Z,84.16
2023-03-20T04:23:35.864Z,84.18
2023-03-20T04:24:35.558Z,84.17
2023-03-20T04:25:36.068Z,84.13
2023-03-20T04:26:35.113Z,84.13
2023-03-20T04:27:35.504Z,84.08
2023-03-20T04:28:35.547Z,83.95
2023-03-20T04:29:37.003Z,83.91
2023-03-20T04:30:36.404Z,83.91
2023-03-20T04:31:35.686Z,83.88
2023-03-20T04:32:35.830Z,83.91
2023-03-20T04:33:36.039Z,83.81
2023-03-20T04:34:35.146Z,83.81
2023-03-20T04:35:35.914Z,83.77
2023-03-20T04:36:35.508Z,83.77
2023-03-20T04:37:35.547Z,83.86
2023-03-20T04:38:35.701Z,83.81
2023-03-20T04:39:35.614Z,83.81
2023-03-20T04:40:35.673Z,83.84
2023-03-20T04:41:36.119Z,83.82
2023-03-20T04:42:35.336Z,83.93
2023-03-20T04:43:35.575Z,83.94
2023-03-20T04:44:35.259Z,84.09
2023-03-20T04:45:35.751Z,84.13
2023-03-20T04:46:35.990Z,84.29
2023-03-20T04:47:35.507Z,84.30
2023-03-20T04:48:35.376Z,84.19
2023-03-20T04:49:34.942Z,84.19
2023-03-20T04:50:36.081Z,84.22
2023-03-20T04:51:35.853Z,84.32
2023-03-20T04:52:36.093Z,84.30
2023-03-20T04:53:35.621Z,84.33
2023-03-20T04:54:35.678Z,84.35
2023-03-20T04:55:36.078Z,84.38
2023-03-20T04:56:35.427Z,84.41
2023-03-20T04:57:35.925Z,84.32
2023-03-20T04:58:35.851Z,84.32
2023-03-20T04:59:35.881Z,84.23
2023-03-20T05:00:37.543Z,84.22
2023-03-20T05:01:35.830Z,84.22
2023-03-20T05:02:35.593Z,84.31
2023-03-20T05:03:37.834Z,84.43
2023-03-20T05:04:36.070Z,84.48
2023-03-20T05:05:35.886Z,84.48
2023-03-20T05:06:35.893Z,84.46
2023-03-20T05:07:36.392Z,84.55
2023-03-20T05:08:35.482Z,84.58
2023-03-20T05:09:35.614Z,84.44
2023-03-20T05:10:36.034Z,84.37
2023-03-20T05:11:35.699Z,84.34
2023-03-20T05:12:36.197Z,84.38
2023-03-20T05:13:35.695Z,84.49
2023-03-20T05:14:35.765Z,84.57
2023-03-20T05:15:36.408Z,84.66
2023-03-20T05:16:36.111Z,84.73
2023-03-20T05:17:35.544Z,84.72
2023-03-20T05:18:35.561Z,84.72
2023-03-20T05:19:36.008Z,84.69
2023-03-20T05:20:36.407Z,84.62
2023-03-20T05:21:35.551Z,84.61
2023-03-20T05:22:36.542Z,84.68
2023-03-20T05:23:35.875Z,84.70
2023-03-20T05:24:35.750Z,84.68
2023-03-20T05:25:36.047Z,84.69
2023-03-20T05:26:35.770Z,84.73
2023-03-20T05:27:35.749Z,84.77
2023-03-20T05:28:35.611Z,84.77
2023-03-20T05:29:35.868Z,84.62
2023-03-20T05:30:37.427Z,84.51
2023-03-20T05:31:35.424Z,84.40
2023-03-20T05:32:35.738Z,84.52
2023-03-20T05:33:38.072Z,84.54
2023-03-20T05:34:35.841Z,84.52
2023-03-20T05:35:36.894Z,84.57
2023-03-20T05:36:35.688Z,84.67
2023-03-20T05:37:35.849Z,84.82
2023-03-20T05:38:35.807Z,84.77
2023-03-20T05:39:40.923Z,84.66
2023-03-20T05:40:36.626Z,84.62
2023-03-20T05:41:36.382Z,84.57
2023-03-20T05:42:35.562Z,84.47
2023-03-20T05:43:35.173Z,84.42
2023-03-20T05:44:35.220Z,84.37
2023-03-20T05:45:35.968Z,84.34
2023-03-20T05:46:35.860Z,84.35
2023-03-20T05:47:40.394Z,84.51
2023-03-20T05:48:36.042Z,84.66
2023-03-20T05:49:36.118Z,84.64
2023-03-20T05:50:35.786Z,84.66
2023-03-20T05:51:35.854Z,84.69
2023-03-20T05:52:35.833Z,84.81
2023-03-20T05:53:36.318Z,85.08
2023-03-20T05:54:35.716Z,85.12
2023-03-20T05:55:36.621Z,85.08
2023-03-20T05:56:36.802Z,85.12
2023-03-20T05:57:36.584Z,85.06
2023-03-20T05:58:35.410Z,85.11
2023-03-20T05:59:35.888Z,85.18
2023-03-20T06:00:37.844Z,85.17
2023-03-20T06:01:50.479Z,85.09
2023-03-20T06:02:35.920Z,85.02
2023-03-20T06:03:36.800Z,85.03
2023-03-20T06:04:35.804Z,85.05
2023-03-20T06:05:36.296Z,85.10
2023-03-20T06:06:36.219Z,85.15
2023-03-20T06:07:36.063Z,85.17
2023-03-20T06:08:35.802Z,85.13
2023-03-20T06:09:36.450Z,85.09
2023-03-20T06:10:36.962Z,85.15
2023-03-20T06:11:37.773Z,85.16
2023-03-20T06:12:37.161Z,85.17
2023-03-20T06:13:36.012Z,85.24
2023-03-20T06:14:35.640Z,85.22
2023-03-20T06:15:36.593Z,85.15
2023-03-20T06:16:37.034Z,85.05
2023-03-20T06:17:35.733Z,85.09
2023-03-20T06:18:37.632Z,85.04
2023-03-20T06:19:44.284Z,84.95
2023-03-20T06:20:36.056Z,84.88
2023-03-20T06:21:35.987Z,84.90
2023-03-20T06:22:35.880Z,84.91
2023-03-20T06:23:36.394Z,84.88
2023-03-20T06:24:36.033Z,84.96
2023-03-20T06:25:37.042Z,85.09
2023-03-20T06:26:36.331Z,85.10
2023-03-20T06:27:36.337Z,85.10
2023-03-20T06:28:36.072Z,85.06
2023-03-20T06:29:36.118Z,85.08
2023-03-20T06:30:36.598Z,85.19
2023-03-20T06:31:36.509Z,85.27
2023-03-20T06:32:36.710Z,85.35
2023-03-20T06:33:37.905Z,85.44
2023-03-20T06:34:37.625Z,85.37
2023-03-20T06:35:37.283Z,85.32
2023-03-20T06:36:36.310Z,85.33
2023-03-20T06:37:49.934Z,85.31
2023-03-20T06:38:36.262Z,85.31
2023-03-20T06:39:35.797Z,85.33
2023-03-20T06:40:36.864Z,85.32
2023-03-20T06:41:48.052Z,85.26
2023-03-20T06:42:35.876Z,85.25
2023-03-20T06:43:35.779Z,85.15
2023-03-20T06:44:36.377Z,85.08
2023-03-20T06:45:36.996Z,85.03
2023-03-20T06:46:35.472Z,85.05
2023-03-20T06:47:35.978Z,85.05
2023-03-20T06:48:35.730Z,85.10
2023-03-20T06:49:35.985Z,85.17
2023-03-20T06:50:35.933Z,85.25
2023-03-20T06:51:36.731Z,85.32
2023-03-20T06:52:37.986Z,85.35
2023-03-20T06:53:37.030Z,85.40
2023-03-20T06:54:37.023Z,85.43
2023-03-20T06:55:38.201Z,85.43
2023-03-20T06:56:36.343Z,85.62
2023-03-20T06:57:36.381Z,85.74
2023-03-20T06:58:35.993Z,85.60
2023-03-20T06:59:35.798Z,85.44
2023-03-20T07:00:39.486Z,85.30
2023-03-20T07:01:37.714Z,85.23
2023-03-20T07:02:37.522Z,85.24
2023-03-20T07:03:36.236Z,85.16
2023-03-20T07:04:36.342Z,85.17
2023-03-20T07:05:37.013Z,85.13
2023-03-20T07:06:36.375Z,85.05
2023-03-20T07:07:36.106Z,84.96
2023-03-20T07:08:35.740Z,84.87
2023-03-20T07:09:36.835Z,84.78
2023-03-20T07:10:36.877Z,84.66
2023-03-20T07:11:36.735Z,84.72
2023-03-20T07:12:36.278Z,84.74
2023-03-20T07:13:35.679Z,84.72
2023-03-20T07:14:36.159Z,84.67
2023-03-20T07:15:35.368Z,84.63
2023-03-20T07:16:36.113Z,84.63
2023-03-20T07:17:36.340Z,84.64
2023-03-20T07:18:36.260Z,84.61
2023-03-20T07:19:38.037Z,84.62
2023-03-20T07:20:35.960Z,84.45
2023-03-20T07:21:36.503Z,84.45
2023-03-20T07:22:36.017Z,84.44
2023-03-20T07:23:36.226Z,84.53
2023-03-20T07:24:36.119Z,84.54
2023-03-20T07:26:14.596Z,84.56
2023-03-20T07:26:36.831Z,84.31
2023-03-20T07:27:36.841Z,84.31
2023-03-20T07:28:36.448Z,84.54
2023-03-20T07:29:36.734Z,84.50
2023-03-20T07:30:38.245Z,84.42
2023-03-20T07:31:36.397Z,84.46
2023-03-20T07:32:37.902Z,84.43
2023-03-20T07:33:37.351Z,84.06
2023-03-20T07:34:37.036Z,84.05
2023-03-20T07:35:36.496Z,84.07
2023-03-20T07:36:37.014Z,84.00
2023-03-20T07:37:36.352Z,83.90
2023-03-20T07:38:35.893Z,83.83
2023-03-20T07:39:36.919Z,83.88
2023-03-20T07:40:37.256Z,83.91
2023-03-20T07:41:36.426Z,83.73
2023-03-20T07:42:36.293Z,83.53
2023-03-20T07:43:36.424Z,83.39
2023-03-20T07:44:36.391Z,83.29
2023-03-20T07:45:37.370Z,82.90
2023-03-20T07:46:36.683Z,82.86
2023-03-20T07:47:37.408Z,82.77
2023-03-20T07:48:36.681Z,82.48
2023-03-20T07:49:36.730Z,82.30
2023-03-20T07:50:37.802Z,82.23
2023-03-20T07:51:36.604Z,81.95
2023-03-20T07:52:36.352Z,82.10
2023-03-20T07:53:36.502Z,82.23
2023-03-20T07:54:36.926Z,82.38
2023-03-20T07:55:38.337Z,82.41
2023-03-20T07:56:36.376Z,82.54
2023-03-20T07:57:36.509Z,82.68
2023-03-20T07:58:41.974Z,82.70
2023-03-20T07:59:36.775Z,82.63
2023-03-20T08:00:41.029Z,82.66
2023-03-20T08:01:37.383Z,82.48
2023-03-20T08:02:36.284Z,82.29
2023-03-20T08:03:37.010Z,82.30
2023-03-20T08:04:36.318Z,82.32
2023-03-20T08:05:37.705Z,82.16
2023-03-20T08:06:36.530Z,81.84
2023-03-20T08:07:37.328Z,81.89
2023-03-20T08:08:37.320Z,81.82
2023-03-20T08:09:36.883Z,81.72
2023-03-20T08:10:37.589Z,81.57
2023-03-20T08:11:37.267Z,81.50
2023-03-20T08:12:36.284Z,81.48
2023-03-20T08:13:36.926Z,81.29
2023-03-20T08:14:37.206Z,81.27
2023-03-20T08:15:37.795Z,81.07
2023-03-20T08:16:37.325Z,81.07
2023-03-20T08:17:36.617Z,81.04
2023-03-20T08:18:36.569Z,80.88
2023-03-20T08:19:36.317Z,80.57
2023-03-20T08:20:35.921Z,80.42
2023-03-20T08:21:36.374Z,80.42
2023-03-20T08:22:36.466Z,80.51
2023-03-20T08:23:36.079Z,80.31
2023-03-20T08:24:49.698Z,80.31
2023-03-20T08:25:36.649Z,80.30
2023-03-20T08:26:36.125Z,80.34
2023-03-20T08:27:36.104Z,80.21
2023-03-20T08:28:47.229Z,80.09
2023-03-20T08:29:35.909Z,79.97
2023-03-20T08:30:36.310Z,80.07
2023-03-20T08:31:36.244Z,79.86
2023-03-20T08:32:35.805Z,79.60
2023-03-20T08:33:36.380Z,79.62
2023-03-20T08:34:37.820Z,79.73
2023-03-20T08:35:59.743Z,79.60
2023-03-20T08:36:36.230Z,79.58
2023-03-20T08:37:36.000Z,79.65
2023-03-20T08:38:36.038Z,79.62
2023-03-20T08:39:36.021Z,79.77
2023-03-20T08:40:40.878Z,79.76
2023-03-20T08:41:36.686Z,79.81
2023-03-20T08:42:54.968Z,79.83
2023-03-20T08:43:36.590Z,79.87
2023-03-20T08:44:36.869Z,79.85
2023-03-20T08:45:36.908Z,79.68
2023-03-20T08:46:44.442Z,79.56
2023-03-20T08:47:36.043Z,79.63
2023-03-20T08:48:58.116Z,79.70
2023-03-20T08:49:36.825Z,79.89
2023-03-20T08:50:44.987Z,80.01
2023-03-20T08:51:35.587Z,80.04
2023-03-20T08:52:36.665Z,79.91
2023-03-20T08:53:37.071Z,79.65
2023-03-20T08:54:36.045Z,79.52
2023-03-20T08:55:36.838Z,79.48
2023-03-20T08:56:36.937Z,79.16
2023-03-20T08:57:36.967Z,79.18
2023-03-20T08:58:36.779Z,79.30
2023-03-20T08:59:36.724Z,79.45
2023-03-20T09:00:38.159Z,79.57
2023-03-20T09:01:48.716Z,79.44
2023-03-20T09:02:37.212Z,79.39
2023-03-20T09:03:36.555Z,79.37
2023-03-20T09:04:36.068Z,79.39
2023-03-20T09:05:36.691Z,79.44
2023-03-20T09:06:36.661Z,79.21
2023-03-20T09:07:36.649Z,79.03
2023-03-20T09:08:36.017Z,78.88
2023-03-20T09:09:36.549Z,78.93
2023-03-20T09:10:36.870Z,78.88
2023-03-20T09:11:36.446Z,78.74
2023-03-20T09:12:36.024Z,78.45
2023-03-20T09:13:41.623Z,78.00
2023-03-20T09:14:36.223Z,77.96
2023-03-20T09:15:37.501Z,77.96
2023-03-20T09:16:36.392Z,77.95
2023-03-20T09:17:36.769Z,77.93
2023-03-20T09:18:36.558Z,77.68
2023-03-20T09:19:35.924Z,77.67
2023-03-20T09:20:36.744Z,77.37
2023-03-20T09:21:37.056Z,77.03
2023-03-20T09:22:36.250Z,77.01
2023-03-20T09:23:36.841Z,77.22
2023-03-20T09:24:36.750Z,77.06
2023-03-20T09:25:37.841Z,76.87
2023-03-20T09:26:36.493Z,77.33
2023-03-20T09:27:36.720Z,77.20
2023-03-20T09:28:36.424Z,77.01
2023-03-20T09:29:36.894Z,76.40
2023-03-20T09:30:37.724Z,76.62
2023-03-20T09:31:36.650Z,76.70
2023-03-20T09:32:36.707Z,76.28
2023-03-20T09:33:36.275Z,76.50
2023-03-20T09:34:36.348Z,76.44
2023-03-20T09:35:36.802Z,76.04
2023-03-20T09:36:36.874Z,75.88
2023-03-20T09:37:37.314Z,75.44
2023-03-20T09:38:36.365Z,75.20
2023-03-20T09:39:37.064Z,74.84
2023-03-20T09:40:37.229Z,75.41
2023-03-20T09:41:52.820Z,75.47
2023-03-20T09:42:37.514Z,75.37
2023-03-20T09:43:37.155Z,75.77
2023-03-20T09:44:36.523Z,75.75
2023-03-20T09:45:37.300Z,75.43
2023-03-20T09:46:37.008Z,75.16
2023-03-20T09:47:37.125Z,75.28
2023-03-20T09:48:37.605Z,75.43
2023-03-20T09:49:37.523Z,75.58
2023-03-20T09:50:38.465Z,75.68
2023-03-20T09:51:37.588Z,75.71
2023-03-20T09:52:37.365Z,75.75
2023-03-20T09:53:37.328Z,75.54
2023-03-20T09:54:51.019Z,75.37
2023-03-20T09:55:37.798Z,75.60
2023-03-20T09:56:37.476Z,75.63
2023-03-20T09:57:38.428Z,75.27
2023-03-20T09:58:37.800Z,75.33
2023-03-20T09:59:37.953Z,74.85
2023-03-20T10:01:39.839Z,74.44
2023-03-20T10:02:38.113Z,74.18
2023-03-20T10:03:37.141Z,74.01
2023-03-20T10:04:37.720Z,73.27
2023-03-20T10:05:38.601Z,72.95
2023-03-20T10:06:37.954Z,72.22
2023-03-20T10:07:37.239Z,72.26
2023-03-20T10:08:37.942Z,72.18
2023-03-20T10:09:38.948Z,72.08
2023-03-20T10:10:38.699Z,71.48
2023-03-20T10:11:37.909Z,72.04
2023-03-20T10:12:38.543Z,72.56
2023-03-20T10:13:37.630Z,72.95
2023-03-20T10:14:39.597Z,73
2023-03-20T10:15:39.199Z,72.98
2023-03-20T10:16:37.678Z,72.35
2023-03-20T10:17:37.935Z,71.06
2023-03-20T10:18:38.519Z,70.87
2023-03-20T10:19:37.979Z,70.76
2023-03-20T10:20:38.664Z,70.80
2023-03-20T10:21:38.003Z,70.76
2023-03-20T10:22:37.424Z,70.63
2023-03-20T10:23:38.058Z,70.47
2023-03-20T10:24:37.584Z,70.34
2023-03-20T10:25:37.678Z,70.5
2023-03-20T10:26:37.709Z,71.04
2023-03-20T10:27:37.792Z,71.01
2023-03-20T10:28:37.621Z,70.68
2023-03-20T10:29:37.968Z,70.55
2023-03-20T10:30:39.071Z,70.34
2023-03-20T10:31:43.283Z,70.36
2023-03-20T10:32:38.050Z,69.98
2023-03-20T10:33:37.692Z,69.58
2023-03-20T10:34:38.095Z,70.58
2023-03-20T10:35:38.038Z,70.28
2023-03-20T10:36:37.781Z,70.56
2023-03-20T10:37:37.254Z,70.19
2023-03-20T10:38:37.438Z,70.62
2023-03-20T10:39:37.666Z,70.16
2023-03-20T10:40:38.448Z,70.62
2023-03-20T10:41:45.887Z,70.66
2023-03-20T10:42:37.493Z,70.52
2023-03-20T10:43:39.901Z,70.09
2023-03-20T10:44:37.086Z,69.43
2023-03-20T10:45:38.068Z,69.66
2023-03-20T10:46:37.657Z,69.67
2023-03-20T10:47:52.976Z,69.68
2023-03-20T10:48:38.534Z,69.98
2023-03-20T10:49:37.651Z,69.76
2023-03-20T10:50:38.282Z,69.66
2023-03-20T10:51:37.508Z,69.47
2023-03-20T10:52:37.478Z,70.00
2023-03-20T10:53:51.604Z,69.92
2023-03-20T10:54:38.056Z,70.15
2023-03-20T10:55:38.292Z,70.03
2023-03-20T10:56:38.564Z,69.47
2023-03-20T10:57:39.643Z,70.01
2023-03-20T10:58:40.021Z,69.66
2023-03-20T10:59:41.254Z,69.34
2023-03-20T11:01:57.804Z,68.87
2023-03-20T11:02:38.618Z,69.27
2023-03-20T11:03:56.848Z,68.59
2023-03-20T11:04:38.798Z,69.08
2023-03-20T11:06:08.982Z,69.22
2023-03-20T11:06:37.744Z,69.20
2023-03-20T11:07:56.127Z,68.83
2023-03-20T11:08:38.147Z,69.22
2023-03-20T11:09:57.574Z,69.02
2023-03-20T11:10:39.708Z,68.77
2023-03-20T11:11:44.542Z,68.91
2023-03-20T11:12:39.224Z,68.83
2023-03-20T11:14:01.104Z,69.66
2023-03-20T11:14:38.158Z,69.61
2023-03-20T11:15:46.523Z,69.58
2023-03-20T11:16:37.877Z,70.41
2023-03-20T11:17:46.457Z,70.06
2023-03-20T11:18:38.149Z,70.26
2023-03-20T11:19:52.100Z,69.43
2023-03-20T11:20:38.486Z,70.12
2023-03-20T11:21:38.598Z,69.69
2023-03-20T11:22:37.988Z,69.26
2023-03-20T11:23:37.649Z,68.80
2023-03-20T11:24:37.493Z,68.80
2023-03-20T11:25:38.397Z,69.29
2023-03-20T11:26:37.685Z,69.29
2023-03-20T11:27:51.766Z,68.98
2023-03-20T11:28:37.630Z,69.37
2023-03-20T11:29:38.075Z,69.38
2023-03-20T11:30:37.773Z,69.13
2023-03-20T11:31:37.973Z,69.24
2023-03-20T11:32:37.198Z,69.43
2023-03-20T11:33:56.376Z,69.30
2023-03-20T11:34:37.372Z,69.04
2023-03-20T11:35:37.695Z,69.26
2023-03-20T11:36:41.471Z,69.72
2023-03-20T11:37:37.447Z,69.43
2023-03-20T11:38:37.618Z,69.52
2023-03-20T11:39:37.174Z,69.37
2023-03-20T11:40:38.024Z,69.37
2023-03-20T11:41:40.676Z,69.22
2023-03-20T11:42:37.661Z,68.45
2023-03-20T11:43:37.117Z,68.69
2023-03-20T11:44:37.335Z,68.80
2023-03-20T11:45:37.394Z,68.59
2023-03-20T11:46:37.511Z,68.76
2023-03-20T11:47:37.885Z,68.77
2023-03-20T11:48:37.312Z,68.77
2023-03-20T11:49:36.924Z,68.75
2023-03-20T11:50:38.443Z,68.48
2023-03-20T11:51:38.097Z,68.23
2023-03-20T11:52:37.354Z,67.87
2023-03-20T11:53:37.827Z,67.92
2023-03-20T11:54:37.908Z,67.92
2023-03-20T11:55:38.537Z,67.97
2023-03-20T11:56:37.600Z,68.15
2023-03-20T11:57:37.446Z,68.24
2023-03-20T11:58:37.587Z,68.48
2023-03-20T11:59:37.193Z,68.01
2023-03-20T12:00:38.994Z,68.14
2023-03-20T12:02:36.964Z,68.37
2023-03-20T12:03:37.982Z,68.46
2023-03-20T12:04:37.550Z,68.58
2023-03-20T12:05:38.022Z,68.42
2023-03-20T12:06:37.293Z,68.40
2023-03-20T12:07:37.341Z,68.73
2023-03-20T12:08:37.770Z,68.90
2023-03-20T12:09:37.614Z,68.60
2023-03-20T12:10:38.265Z,68.62
2023-03-20T12:11:37.954Z,68.52
2023-03-20T12:12:37.782Z,68.47
2023-03-20T12:13:37.512Z,68.58
2023-03-20T12:14:37.272Z,68.44
2023-03-20T12:15:37.562Z,68.65
2023-03-20T12:16:38.076Z,69.06
2023-03-20T12:17:37.361Z,68.92
2023-03-20T12:18:37.210Z,68.66
2023-03-20T12:19:36.775Z,68.73
2023-03-20T12:20:38.119Z,68.79
2023-03-20T12:21:37.132Z,68.51
2023-03-20T12:22:37.314Z,68.63
2023-03-20T12:23:37.685Z,69.19
2023-03-20T12:24:37.338Z,68.95
2023-03-20T12:25:37.557Z,68.90
2023-03-20T12:26:37.126Z,68.96
2023-03-20T12:27:37.138Z,69.26
2023-03-20T12:28:37.211Z,69.34
2023-03-20T12:29:36.999Z,69.40
2023-03-20T12:30:37.335Z,69.33
2023-03-20T12:31:38.176Z,69.06
2023-03-20T12:32:37.529Z,68.91
2023-03-20T12:33:37.041Z,69.30
2023-03-20T12:34:39.156Z,69.57
2023-03-20T12:35:39.712Z,69.72
2023-03-20T12:36:38.949Z,69.68
2023-03-20T12:37:37.142Z,69.87
2023-03-20T12:38:37.359Z,70.18
2023-03-20T12:39:37.982Z,70.28
2023-03-20T12:40:37.822Z,70.54
2023-03-20T12:41:38.785Z,70.57
2023-03-20T12:42:38.146Z,70.47
2023-03-20T12:43:37.825Z,70.39
2023-03-20T12:44:38.590Z,70.53
2023-03-20T12:45:38.723Z,70.59
2023-03-20T12:46:38.067Z,70.77
2023-03-20T12:47:37.484Z,70.45
2023-03-20T12:48:37.622Z,70.38
2023-03-20T12:49:37.616Z,70.27
2023-03-20T12:50:43.331Z,70.02
2023-03-20T12:51:38.723Z,69.98
2023-03-20T12:52:42.681Z,70.10
2023-03-20T12:53:37.646Z,70.23
2023-03-20T12:54:37.246Z,70.33
2023-03-20T12:55:37.680Z,70.61
2023-03-20T12:56:37.735Z,70.79
2023-03-20T12:57:37.998Z,70.94
2023-03-20T12:58:37.337Z,71.11